Time;durP1;ratioP1;P1;durP2;ratioP2;P2;SDS_P1;SDS_P2;PMS_P1;PMS_P2;Temp;Humidity;BMP_temperature;BMP_pressure;BME280_temperature;BME280_humidity;BME280_pressure;Samples;Min_cycle;Max_cycle;Signal;HPM_P1;HPM_P2
2022/01/04 00:00:47;;;;;;;26.83;12.83;;;;;;;13.93;100.00;100074.09;5075313;28;20047;-47
2022/01/04 00:03:12;;;;;;;22.63;13.20;;;;;;;13.95;100.00;100069.28;5093469;28;20119;-46
2022/01/04 00:05:39;;;;;;;24.27;11.88;;;;;;;13.96;100.00;100070.94;5093663;28;20487;-48
2022/01/04 00:08:08;;;;;;;;;;;;;;;14.28;100.00;100047.13;5093461;28;20047;-43
2022/01/04 00:10:35;;;;;;;21.73;13.53;;;;;;;13.88;100.00;100054.13;5093637;28;19919;-46
2022/01/04 00:15:44;;;;;;;24.20;13.23;;;;;;;13.85;100.00;100043.84;5093229;28;20000;-49
2022/01/04 00:18:11;;;;;;;27.08;12.60;;;;;;;13.98;100.00;100033.88;5093568;28;20304;-44
2022/01/04 00:20:36;;;;;;;24.98;13.13;;;;;;;14.00;100.00;100023.69;5093104;28;20048;-47
2022/01/04 00:23:02;;;;;;;23.75;12.95;;;;;;;13.86;100.00;100015.09;5091653;28;20450;-42
2022/01/04 00:25:28;;;;;;;24.95;12.80;;;;;;;13.79;100.00;100017.09;5092957;28;20065;-41
2022/01/04 00:27:54;;;;;;;27.30;12.45;;;;;;;13.73;100.00;100010.78;5091729;28;20130;-50
2022/01/04 00:30:19;;;;;;;25.02;12.68;;;;;;;13.91;100.00;100012.50;5075205;28;20048;-48
2022/01/04 00:32:45;;;;;;;29.13;15.00;;;;;;;14.32;100.00;99991.78;5093170;28;20039;-47
2022/01/04 00:35:10;;;;;;;30.63;14.30;;;;;;;14.14;100.00;99976.66;5074972;28;20510;-47
2022/01/04 00:37:36;;;;;;;28.83;13.57;;;;;;;14.06;100.00;99985.09;5092362;28;20602;-44
2022/01/04 00:40:02;;;;;;;27.23;14.40;;;;;;;14.06;100.00;99974.34;5075520;28;20565;-47
2022/01/04 00:42:28;;;;;;;26.67;13.82;;;;;;;13.85;100.00;99973.16;5075452;28;20126;-50
2022/01/04 00:44:53;;;;;;;32.83;14.10;;;;;;;13.99;100.00;99971.00;5093913;28;20064;-46
2022/01/04 00:47:26;;;;;;;25.53;14.50;;;;;;;13.80;100.00;99979.22;5095534;28;20059;-43
2022/01/04 00:49:51;;;;;;;33.23;15.57;;;;;;;14.01;100.00;99956.28;5096933;28;20288;-43
2022/01/04 00:52:17;;;;;;;30.17;16.35;;;;;;;13.76;100.00;99960.09;5095842;28;20835;-42
2022/01/04 00:54:43;;;;;;;29.60;13.70;;;;;;;14.04;100.00;99957.63;5078383;28;20135;-46
2022/01/04 00:57:08;;;;;;;28.55;13.75;;;;;;;13.94;100.00;99955.56;5078393;28;20130;-45
2022/01/04 00:59:34;;;;;;;31.73;13.77;;;;;;;13.82;100.00;99955.63;5045900;28;20469;-45
2022/01/04 01:01:59;;;;;;;25.03;14.27;;;;;;;14.16;100.00;99952.22;5094920;28;20666;-45
2022/01/04 01:04:25;;;;;;;36.93;16.17;;;;;;;13.92;100.00;99946.94;5096119;28;20040;-48
2022/01/04 01:06:50;;;;;;;32.23;15.10;;;;;;;14.02;100.00;99941.78;5095342;28;20604;-47
2022/01/04 01:09:16;;;;;;;25.00;14.20;;;;;;;14.03;100.00;99947.94;5095527;28;20288;-55
2022/01/04 01:11:41;;;;;;;33.83;14.43;;;;;;;13.96;100.00;99944.59;5095638;28;20365;-56
2022/01/04 01:14:07;;;;;;;24.57;14.17;;;;;;;13.95;100.00;99940.28;5095262;28;20047;-56
2022/01/04 01:16:33;;;;;;;28.35;15.57;;;;;;;13.90;100.00;99923.00;5095914;28;20481;-56
2022/01/04 01:18:58;;;;;;;31.37;14.80;;;;;;;13.79;100.00;99934.59;5095417;28;20509;-57
2022/01/04 01:21:24;;;;;;;34.13;15.23;;;;;;;13.84;100.00;99928.50;5077288;28;20440;-58
2022/01/04 01:23:50;;;;;;;32.10;14.93;;;;;;;13.91;100.00;99916.56;5095153;28;20040;-56
2022/01/04 01:26:15;;;;;;;24.58;14.90;;;;;;;13.71;100.00;99925.03;5095221;28;20051;-57
2022/01/04 01:28:41;;;;;;;30.07;16.17;;;;;;;13.70;100.00;99919.91;5093593;28;20120;-53
2022/01/04 01:31:08;;;;;;;25.98;15.35;;;;;;;13.68;100.00;99920.16;5093953;28;20347;-56
2022/01/04 01:33:33;;;;;;;24.80;14.63;;;;;;;13.65;100.00;99917.13;5095192;28;20036;-56
2022/01/04 01:35:59;;;;;;;27.60;15.57;;;;;;;13.59;100.00;99921.59;5076928;28;20367;-58
2022/01/04 01:38:25;;;;;;;29.75;16.15;;;;;;;13.48;100.00;99909.81;5093568;28;20085;-55
2022/01/04 01:40:52;;;;;;;33.95;16.88;;;;;;;13.79;100.00;99910.41;5095298;28;20040;-56
2022/01/04 01:43:19;;;;;;;36.80;16.73;;;;;;;13.75;100.00;99910.09;5095333;28;20042;-57
2022/01/04 01:45:45;;;;;;;28.00;15.98;;;;;;;13.69;100.00;99905.66;5094506;28;20318;-53
2022/01/04 01:48:11;;;;;;;31.55;16.25;;;;;;;13.96;100.00;99898.91;5094394;28;20031;-57
2022/01/04 01:50:37;;;;;;;33.47;17.23;;;;;;;13.61;100.00;99893.44;5094484;28;20152;-56
2022/01/04 01:53:03;;;;;;;42.28;18.00;;;;;;;13.56;100.00;99896.00;5093683;28;20034;-55
2022/01/04 01:55:29;;;;;;;33.67;17.65;;;;;;;14.00;100.00;99890.13;5077065;28;20032;-54
2022/01/04 01:57:55;;;;;;;32.70;17.45;;;;;;;13.84;100.00;99888.19;5093557;28;20373;-54
2022/01/04 02:00:23;;;;;;;28.30;15.90;;;;;;;14.04;100.00;99893.13;5094231;28;20058;-54
2022/01/04 02:02:49;;;;;;;40.70;18.30;;;;;;;14.13;100.00;99885.47;5093339;28;20268;-57
2022/01/04 02:05:14;;;;;;;31.43;17.83;;;;;;;14.30;100.00;99888.19;5076558;28;20449;-53
2022/01/04 02:07:42;;;;;;;31.05;16.80;;;;;;;13.99;100.00;99888.50;5093477;28;20028;-56
2022/01/04 02:10:08;;;;;;;32.37;16.67;;;;;;;13.73;100.00;99879.13;5093352;28;20044;-53
2022/01/04 02:12:49;;;;;;;30.05;16.30;;;;;;;14.28;100.00;99869.63;5094715;28;20299;-54
2022/01/04 02:15:21;;;;;;;31.70;16.03;;;;;;;14.07;100.00;99857.72;5076644;28;20052;-55
2022/01/04 02:17:48;;;;;;;32.87;16.97;;;;;;;14.30;100.00;99861.28;5094342;28;20264;-53
2022/01/04 02:20:15;;;;;;;;;;;;;;;13.95;100.00;99860.44;5093975;28;20748;-54
2022/01/04 02:22:41;;;;;;;27.52;13.38;;;;;;;13.83;100.00;99857.81;5093472;28;19920;-55
2022/01/04 02:25:07;;;;;;;28.02;15.60;;;;;;;14.02;100.00;99852.22;5092183;28;20044;-55
2022/01/04 02:27:34;;;;;;;;;;;;;;;14.18;100.00;99848.75;5093927;28;20048;-57
2022/01/04 02:30:00;;;;;;;28.83;15.20;;;;;;;13.94;100.00;99849.94;5093555;28;20098;-57
2022/01/04 02:32:25;;;;;;;31.55;14.75;;;;;;;14.14;100.00;99844.09;5092144;28;20276;-56
2022/01/04 02:34:52;;;;;;;27.43;16.03;;;;;;;14.10;100.00;99851.84;5093308;28;20135;-58
2022/01/04 02:37:18;;;;;;;;;;;;;;;13.89;100.00;99848.81;5092640;28;20105;-56
2022/01/04 02:39:44;;;;;;;30.23;15.33;;;;;;;13.77;100.00;99850.72;5093139;28;19912;-56
2022/01/04 02:42:09;;;;;;;31.23;16.70;;;;;;;13.82;100.00;99840.06;5092952;28;20299;-56
2022/01/04 02:44:35;;;;;;;28.60;15.03;;;;;;;14.00;100.00;99835.53;5093501;28;20468;-56
2022/01/04 02:47:00;;;;;;;29.60;16.07;;;;;;;14.14;100.00;99836.84;5093578;28;20043;-55
2022/01/04 02:49:26;;;;;;;34.07;15.53;;;;;;;14.42;100.00;99835.13;5093094;28;20292;-53
2022/01/04 02:51:52;;;;;;;30.83;16.60;;;;;;;14.49;100.00;99827.69;5093558;28;20035;-52
2022/01/04 02:54:18;;;;;;;28.77;15.15;;;;;;;14.10;100.00;99819.59;5093762;28;20040;-56
2022/01/04 02:56:43;;;;;;;26.02;15.07;;;;;;;13.89;100.00;99819.25;5093701;28;20032;-55
2022/01/04 02:59:09;;;;;;;30.93;15.43;;;;;;;13.94;100.00;99813.13;5093371;28;20092;-54
2022/01/04 03:01:35;;;;;;;33.10;17.85;;;;;;;14.09;100.00;99809.91;5093212;28;20032;-56
2022/01/04 03:04:01;;;;;;;29.73;15.85;;;;;;;14.12;100.00;99809.41;5092017;28;20039;-57
2022/01/04 03:06:26;;;;;;;26.77;14.63;;;;;;;13.87;100.00;99799.84;5093457;28;20051;-58
2022/01/04 03:08:52;;;;;;;30.63;16.23;;;;;;;13.94;100.00;99794.31;5091973;28;20280;-57
2022/01/04 03:11:17;;;;;;;33.07;15.57;;;;;;;14.09;100.00;99793.75;5092956;28;20047;-57
2022/01/04 03:13:43;;;;;;;27.52;15.50;;;;;;;13.86;100.00;99786.66;5092963;28;20035;-57
2022/01/04 03:16:09;;;;;;;30.45;15.68;;;;;;;13.88;100.00;99784.53;5092162;28;20047;-57
2022/01/04 03:18:38;;;;;;;30.17;14.75;;;;;;;13.76;100.00;99787.28;5092526;28;20392;-56
2022/01/04 03:21:03;;;;;;;30.53;15.20;;;;;;;13.47;100.00;99777.38;5093008;28;20040;-54
2022/01/04 03:23:29;;;;;;;31.80;15.17;;;;;;;13.85;100.00;99769.72;5093051;28;20307;-56
2022/01/04 03:25:54;;;;;;;32.13;16.80;;;;;;;13.57;100.00;99766.00;5092952;28;20024;-57
2022/01/04 03:28:22;;;;;;;29.37;16.33;;;;;;;13.56;100.00;99766.28;5092648;28;20424;-57
2022/01/04 03:30:48;;;;;;;29.53;15.90;;;;;;;14.10;100.00;99760.44;5092992;28;20192;-53
2022/01/04 03:33:15;;;;;;;34.30;16.13;;;;;;;13.87;100.00;99743.41;5092888;28;20378;-57
2022/01/04 03:35:40;;;;;;;29.20;15.40;;;;;;;13.58;100.00;99743.47;5092923;28;20040;-55
2022/01/04 03:38:06;;;;;;;32.63;16.17;;;;;;;13.57;100.00;99735.66;5092758;28;20288;-55
2022/01/04 03:40:31;;;;;;;34.73;16.23;;;;;;;13.56;100.00;99721.41;5091891;28;20067;-57
2022/01/04 03:42:56;;;;;;;34.63;16.23;;;;;;;13.68;100.00;99712.47;5091462;28;20439;-55
2022/01/04 03:45:22;;;;;;;31.20;16.13;;;;;;;13.58;100.00;99705.06;5092728;28;20079;-55
2022/01/04 03:47:48;;;;;;;27.95;15.55;;;;;;;13.56;100.00;99709.84;5092290;28;20036;-57
2022/01/04 03:50:13;;;;;;;33.70;15.77;;;;;;;13.37;100.00;99703.84;5092668;28;20093;-54
2022/01/04 03:52:39;;;;;;;27.52;14.93;;;;;;;13.53;100.00;99697.72;5092416;28;20032;-56
2022/01/04 03:55:06;;;;;;;29.83;15.73;;;;;;;13.66;100.00;99695.78;5074368;28;20044;-56
2022/01/04 03:57:32;;;;;;;28.87;15.00;;;;;;;13.78;100.00;99688.44;5091251;28;20272;-54
2022/01/04 03:59:58;;;;;;;31.42;16.33;;;;;;;13.70;100.00;99692.34;5092248;28;20767;-55
2022/01/04 04:02:23;;;;;;;31.43;17.30;;;;;;;13.36;100.00;99678.06;5092534;28;20063;-57
2022/01/04 04:04:49;;;;;;;32.97;18.57;;;;;;;13.61;100.00;99675.84;5091393;28;20040;-57
2022/01/04 04:07:14;;;;;;;32.03;16.53;;;;;;;13.50;100.00;99671.34;5092445;28;20119;-54
2022/01/04 04:09:40;;;;;;;29.03;16.57;;;;;;;13.29;100.00;99668.28;5092570;28;20425;-57
2022/01/04 04:12:06;;;;;;;30.20;16.73;;;;;;;13.60;100.00;99655.38;5092642;28;20036;-53
2022/01/04 04:14:32;;;;;;;28.15;15.45;;;;;;;13.54;100.00;99648.31;5092378;28;20472;-54
2022/01/04 04:16:57;;;;;;;29.00;14.80;;;;;;;13.56;100.00;99640.03;5092128;28;20036;-56
2022/01/04 04:19:23;;;;;;;26.83;14.53;;;;;;;13.76;100.00;99644.88;5091950;28;20063;-56
2022/01/04 04:21:48;;;;;;;27.70;14.57;;;;;;;13.70;100.00;99643.19;5096152;28;20040;-56
2022/01/04 04:24:14;;;;;;;26.20;13.70;;;;;;;13.70;100.00;99635.94;5095847;28;20276;-55
2022/01/04 04:26:39;;;;;;;27.63;13.75;;;;;;;14.09;100.00;99643.22;5096019;28;20135;-57
2022/01/04 04:29:05;;;;;;;21.83;13.53;;;;;;;13.83;100.00;99642.84;5095716;28;20032;-57
2022/01/04 04:31:30;;;;;;;31.70;14.43;;;;;;;14.01;100.00;99644.44;5096280;28;20295;-58
2022/01/04 04:33:56;;;;;;;28.27;13.40;;;;;;;13.75;100.00;99638.72;5096124;28;20356;-54
2022/01/04 04:36:21;;;;;;;27.38;13.57;;;;;;;13.68;100.00;99640.72;5095939;28;20220;-57
2022/01/04 04:38:47;;;;;;;33.90;14.60;;;;;;;13.76;100.00;99634.97;5095248;28;20055;-57
2022/01/04 04:41:12;;;;;;;24.60;14.17;;;;;;;13.76;100.00;99632.28;5095749;28;20047;-57
2022/01/04 04:43:38;;;;;;;31.40;14.43;;;;;;;13.79;100.00;99636.31;5094396;28;20131;-58
2022/01/04 04:46:03;;;;;;;25.67;13.93;;;;;;;13.86;100.00;99628.09;5096132;28;20042;-58
2022/01/04 04:48:29;;;;;;;27.23;16.03;;;;;;;13.45;100.00;99633.69;5095363;28;20068;-52
2022/01/04 04:50:54;;;;;;;26.60;14.32;;;;;;;13.56;100.00;99621.22;5077557;28;20055;-56
2022/01/04 04:53:20;;;;;;;28.95;15.80;;;;;;;13.39;100.00;99627.38;5095797;28;20043;-54
2022/01/04 04:55:45;;;;;;;28.27;15.40;;;;;;;13.40;100.00;99622.81;5095573;28;20406;-52
2022/01/04 04:58:12;;;;;;;28.43;14.90;;;;;;;13.69;100.00;99622.75;5094552;28;20051;-55
2022/01/04 05:00:37;;;;;;;;;;;;;;;13.61;100.00;99624.81;5095172;28;20472;-56
2022/01/04 05:03:03;;;;;;;29.53;16.30;;;;;;;13.32;100.00;99622.16;5095293;28;19916;-54
2022/01/04 05:05:28;;;;;;;27.83;14.87;;;;;;;13.67;100.00;99614.13;5095406;28;20448;-58
2022/01/04 05:07:54;;;;;;;29.73;15.23;;;;;;;13.62;100.00;99610.31;5095155;28;20708;-56
2022/01/04 05:10:20;;;;;;;29.23;14.17;;;;;;;13.28;100.00;99610.28;5095162;28;20130;-55
2022/01/04 05:12:45;;;;;;;34.35;16.85;;;;;;;13.60;100.00;99616.97;5095406;28;20285;-54
2022/01/04 05:15:11;;;;;;;30.40;16.47;;;;;;;13.30;100.00;99629.63;5095611;28;20088;-52
2022/01/04 05:17:36;;;;;;;30.03;15.73;;;;;;;13.40;100.00;99628.19;5095364;28;20040;-55
2022/01/04 05:20:03;;;;;;;35.83;17.73;;;;;;;13.28;100.00;99615.66;5095429;28;20366;-54
2022/01/04 05:22:28;;;;;;;35.77;17.27;;;;;;;13.38;100.00;99593.53;5095057;28;20132;-54
2022/01/04 05:24:54;;;;;;;37.03;18.53;;;;;;;13.46;100.00;99587.75;5095402;28;20451;-54
2022/01/04 05:27:20;;;;;;;38.00;18.25;;;;;;;13.36;100.00;99586.75;5077023;28;20798;-54
2022/01/04 05:29:45;;;;;;;33.78;18.90;;;;;;;13.32;100.00;99591.81;5076826;28;20072;-54
2022/01/04 05:32:11;;;;;;;29.35;16.15;;;;;;;13.50;100.00;99593.47;5092682;28;20040;-54
2022/01/04 05:34:36;;;;;;;35.77;18.23;;;;;;;13.28;100.00;99588.00;5093622;28;20036;-56
2022/01/04 05:37:02;;;;;;;39.72;18.08;;;;;;;13.64;100.00;99585.88;5093557;28;20341;-54
2022/01/04 05:39:28;;;;;;;35.00;17.60;;;;;;;13.37;100.00;99580.31;5094583;28;20074;-55
2022/01/04 05:41:54;;;;;;;36.93;19.17;;;;;;;13.55;100.00;99574.72;5094739;28;20043;-56
2022/01/04 05:44:19;;;;;;;35.05;19.05;;;;;;;13.48;100.00;99577.59;5076868;28;20032;-56
2022/01/04 05:46:45;;;;;;;42.63;18.97;;;;;;;13.51;100.00;99568.22;5094254;28;20043;-57
2022/01/04 05:49:10;;;;;;;35.70;18.87;;;;;;;13.54;100.00;99575.78;5094669;28;20063;-55
2022/01/04 05:51:35;;;;;;;34.50;17.80;;;;;;;13.66;100.00;99567.63;5093334;28;20272;-59
2022/01/04 05:54:01;;;;;;;35.97;18.57;;;;;;;13.16;100.00;99563.91;5093361;28;20131;-55
2022/01/04 05:56:27;;;;;;;35.50;17.03;;;;;;;13.56;100.00;99554.88;5093005;28;20040;-58
2022/01/04 05:58:52;;;;;;;37.23;17.63;;;;;;;13.03;100.00;99549.75;5094203;28;20354;-54
2022/01/04 06:01:17;;;;;;;31.30;16.93;;;;;;;12.91;100.00;99562.41;5094483;28;20085;-53
2022/01/04 06:03:44;;;;;;;40.13;17.37;;;;;;;13.13;100.00;99549.09;5094219;28;20038;-55
2022/01/04 06:06:10;;;;;;;32.17;16.13;;;;;;;13.10;100.00;99551.44;5094351;28;20105;-53
2022/01/04 06:08:37;;;;;;;33.90;17.40;;;;;;;12.98;100.00;99552.34;5094586;28;20121;-55
2022/01/04 06:11:03;;;;;;;34.78;17.35;;;;;;;12.96;100.00;99554.47;5094558;28;20081;-54
2022/01/04 06:16:13;;;;;;;32.88;17.02;;;;;;;13.12;100.00;99549.34;5093996;28;20044;-56
2022/01/04 06:18:41;;;;;;;35.17;17.50;;;;;;;12.96;100.00;99559.84;5092607;28;20096;-57
2022/01/04 06:21:07;;;;;;;34.55;16.33;;;;;;;13.16;100.00;99553.19;5094367;28;20272;-57
2022/01/04 06:23:33;;;;;;;28.95;16.08;;;;;;;13.26;100.00;99556.00;5093179;28;20035;-55
2022/01/04 06:25:59;;;;;;;27.87;15.73;;;;;;;13.36;100.00;99547.31;5093688;28;20460;-56
2022/01/04 06:28:24;;;;;;;34.00;15.25;;;;;;;13.48;100.00;99553.41;5092581;28;20042;-55
2022/01/04 06:30:51;;;;;;;28.88;13.88;;;;;;;13.32;100.00;99559.59;5092873;28;20048;-55
2022/01/04 06:33:20;;;;;;;30.30;15.00;;;;;;;13.17;100.00;99554.81;5093805;28;20372;-57
2022/01/04 06:35:47;;;;;;;28.37;15.27;;;;;;;13.29;100.00;99554.72;5093711;28;20044;-56
2022/01/04 06:38:13;;;;;;;27.73;13.53;;;;;;;13.16;100.00;99550.50;5093638;28;20253;-53
2022/01/04 06:40:38;;;;;;;33.33;14.43;;;;;;;13.36;100.00;99559.91;5093661;28;20283;-57
2022/01/04 06:43:04;;;;;;;24.77;13.70;;;;;;;12.87;100.00;99563.97;5093441;28;20044;-53
2022/01/04 06:45:29;;;;;;;34.13;15.17;;;;;;;13.14;100.00;99555.28;5093497;28;20475;-56
2022/01/04 06:47:55;;;;;;;35.42;16.05;;;;;;;13.38;100.00;99533.63;5093813;28;20044;-54
2022/01/04 06:50:20;;;;;;;38.07;17.07;;;;;;;13.29;100.00;99531.34;5092099;28;20043;-56
2022/01/04 06:52:46;;;;;;;36.97;16.23;;;;;;;13.25;100.00;99524.84;5092278;28;20276;-57
2022/01/04 06:55:11;;;;;;;36.93;17.67;;;;;;;12.88;100.00;99520.81;5092258;28;20101;-62
2022/01/04 06:57:36;;;;;;;32.30;17.13;;;;;;;12.67;100.00;99513.47;5092385;28;20533;-57
2022/01/04 07:00:04;;;;;;;43.43;19.33;;;;;;;12.62;100.00;99509.63;5092283;28;20131;-58
2022/01/04 07:02:30;;;;;;;49.05;21.27;;;;;;;12.69;100.00;99512.19;5093406;28;20043;-56
2022/01/04 07:04:55;;;;;;;45.20;20.97;;;;;;;12.58;100.00;99505.00;5093006;28;20036;-52
2022/01/04 07:07:21;;;;;;;48.57;19.60;;;;;;;12.67;100.00;99508.09;5093275;28;20036;-59
2022/01/04 07:09:46;;;;;;;49.67;20.43;;;;;;;12.73;100.00;99486.50;5093504;28;20068;-55
2022/01/04 07:12:12;;;;;;;58.20;22.57;;;;;;;12.64;100.00;99487.91;5092160;28;20123;-55
2022/01/04 07:14:37;;;;;;;52.33;21.00;;;;;;;12.71;100.00;99483.25;5093052;28;20036;-53
2022/01/04 07:17:03;;;;;;;52.75;22.02;;;;;;;12.70;100.00;99484.28;5092926;28;20036;-54
2022/01/04 07:19:28;;;;;;;55.95;22.48;;;;;;;12.85;100.00;99472.16;5093491;28;20048;-54
2022/01/04 07:21:54;;;;;;;52.63;21.50;;;;;;;12.82;100.00;99478.84;5092096;28;20067;-54
2022/01/04 07:24:19;;;;;;;54.10;24.77;;;;;;;13.03;100.00;99484.50;5093818;28;20285;-58
2022/01/04 07:26:45;;;;;;;58.60;26.23;;;;;;;12.74;100.00;99485.44;5091989;28;20395;-52
2022/01/04 07:29:10;;;;;;;58.57;24.37;;;;;;;12.64;100.00;99479.09;5091544;28;20541;-57
2022/01/04 07:31:36;;;;;;;60.57;24.33;;;;;;;12.83;100.00;99476.97;5092886;28;20043;-54
2022/01/04 07:34:01;;;;;;;55.20;23.40;;;;;;;13.02;100.00;99478.34;5092798;28;20032;-58
2022/01/04 07:36:29;;;;;;;59.30;23.08;;;;;;;12.96;100.00;99476.66;5093031;28;20046;-59
2022/01/04 07:38:55;;;;;;;57.80;22.40;;;;;;;13.03;100.00;99477.28;5093231;28;20551;-57
2022/01/04 07:41:21;;;;;;;;;;;;;;;13.05;100.00;99482.44;5092840;28;20411;-57
2022/01/04 07:43:46;;;;;;;54.57;22.03;;;;;;;12.96;100.00;99479.34;5092249;28;19958;-58
2022/01/04 07:46:12;;;;;;;55.90;23.10;;;;;;;12.89;100.00;99478.66;5058916;28;20148;-57
2022/01/04 07:48:37;;;;;;;62.57;23.10;;;;;;;13.11;100.00;99478.75;5092948;28;20036;-55
2022/01/04 07:51:03;;;;;;;56.60;24.47;;;;;;;12.98;100.00;99462.97;5092707;28;20040;-58
2022/01/04 07:53:29;;;;;;;61.73;25.33;;;;;;;12.82;100.00;99472.66;5092502;28;20044;-59
2022/01/04 07:55:55;;;;;;;55.92;24.45;;;;;;;13.07;100.00;99460.69;5094668;28;20277;-57
2022/01/04 07:58:22;;;;;;;56.65;23.55;;;;;;;12.68;100.00;99470.28;5095839;28;20032;-57
2022/01/04 08:00:47;;;;;;;55.78;24.02;;;;;;;12.91;100.00;99466.66;5095730;28;20051;-57
2022/01/04 08:03:13;;;;;;;51.75;24.73;;;;;;;13.32;100.00;99474.47;5097119;28;20047;-55
2022/01/04 08:05:39;;;;;;;59.67;23.20;;;;;;;12.97;100.00;99470.22;5096838;28;20119;-57
2022/01/04 08:08:05;;;;;;;61.13;22.48;;;;;;;12.93;100.00;99469.09;5095460;28;20476;-58
2022/01/04 08:10:30;;;;;;;62.47;24.35;;;;;;;12.96;100.00;99470.47;5096749;28;20036;-58
2022/01/04 08:12:57;;;;;;;59.60;23.97;;;;;;;13.35;100.00;99478.56;5095448;28;20472;-58
2022/01/04 08:15:23;;;;;;;;;;;;;;;12.97;100.00;99490.88;5096704;28;20326;-55
2022/01/04 08:17:49;;;;;;;54.43;23.47;;;;;;;13.26;100.00;99486.22;5096236;28;20368;-57
2022/01/04 08:20:17;;;;;;;56.65;24.98;;;;;;;13.04;100.00;99486.16;5096321;28;20044;-56
2022/01/04 08:22:42;;;;;;;64.73;24.13;;;;;;;12.99;100.00;99486.91;5095130;28;20048;-55
2022/01/04 08:25:09;;;;;;;62.22;23.77;;;;;;;13.10;100.00;99493.22;5094917;28;20281;-56
2022/01/04 08:27:36;;;;;;;57.17;25.55;;;;;;;13.25;100.00;99497.19;5094763;28;20530;-55
2022/01/04 08:30:04;;;;;;;59.20;24.02;;;;;;;12.99;100.00;99494.94;5096142;28;20119;-55
2022/01/04 08:32:29;;;;;;;53.63;24.65;;;;;;;12.93;100.00;99482.50;5095908;28;20392;-56
2022/01/04 08:34:55;;;;;;;55.63;23.67;;;;;;;12.75;100.00;99488.91;5095815;28;20036;-53
2022/01/04 08:37:20;;;;;;;58.07;23.97;;;;;;;12.70;100.00;99481.63;5095155;28;20486;-57
2022/01/04 08:39:46;;;;;;;57.60;25.00;;;;;;;12.87;100.00;99478.94;5095953;28;20044;-56
2022/01/04 08:42:12;;;;;;;57.38;24.80;;;;;;;12.95;100.00;99482.25;5095905;28;20028;-57
2022/01/04 08:44:39;;;;;;;46.87;22.30;;;;;;;12.41;100.00;99492.34;5095257;28;20063;-57
2022/01/04 08:47:10;;;;;;;55.13;24.13;;;;;;;13.12;100.00;99482.22;5093714;28;20040;-55
2022/01/04 08:49:36;;;;;;;54.80;22.45;;;;;;;12.88;100.00;99498.50;5095547;28;20040;-55
2022/01/04 08:52:06;;;;;;;58.10;24.27;;;;;;;12.75;100.00;99499.63;5077386;28;20427;-57
2022/01/04 08:54:33;;;;;;;53.22;23.88;;;;;;;12.95;100.00;99507.22;5096005;28;20044;-58
2022/01/04 08:56:58;;;;;;;55.08;23.90;;;;;;;13.16;100.00;99502.97;5096322;28;20048;-54
2022/01/04 08:59:25;;;;;;;52.63;22.90;;;;;;;13.28;100.00;99507.47;5093893;28;20521;-58
2022/01/04 09:01:51;;;;;;;52.75;24.48;;;;;;;12.84;100.00;99510.78;5095092;28;20050;-54
2022/01/04 09:04:16;;;;;;;53.83;22.92;;;;;;;12.64;100.00;99512.06;5077384;28;20127;-56
2022/01/04 09:06:42;;;;;;;51.83;21.63;;;;;;;12.73;100.00;99505.25;5093797;28;20048;-55
2022/01/04 09:09:08;;;;;;;55.55;22.67;;;;;;;12.73;100.00;99499.91;5093435;28;20039;-57
2022/01/04 09:11:33;;;;;;;60.25;24.80;;;;;;;13.12;100.00;99504.53;5094844;28;20040;-57
2022/01/04 09:19:17;;;;;;;60.77;24.67;;;;;;;13.36;100.00;99503.50;5095175;28;20117;-58
2022/01/04 09:21:43;;;;;;;66.35;24.33;;;;;;;13.24;100.00;99512.50;5076930;28;20269;-57
2022/01/04 09:24:08;;;;;;;74.93;26.63;;;;;;;13.55;100.00;99518.31;5094982;28;20044;-57
2022/01/04 09:26:34;;;;;;;65.57;24.90;;;;;;;13.30;100.00;99530.28;5095125;28;20044;-57
2022/01/04 09:28:59;;;;;;;70.75;26.10;;;;;;;13.23;100.00;99531.53;5095039;28;20421;-57
2022/01/04 09:31:27;;;;;;;108.20;29.20;;;;;;;13.40;100.00;99526.16;5094745;28;20117;-56
2022/01/04 09:33:54;;;;;;;57.33;19.95;;;;;;;12.42;100.00;99528.84;5093349;28;20048;-56
2022/01/04 09:36:19;;;;;;;42.53;16.25;;;;;;;12.73;100.00;99539.31;5094803;28;20480;-58
2022/01/04 09:38:45;;;;;;;50.57;20.47;;;;;;;12.71;100.00;99534.19;5093822;28;20047;-52
2022/01/04 09:41:10;;;;;;;72.13;24.93;;;;;;;12.29;100.00;99518.41;5094649;28;20052;-55
2022/01/04 09:43:36;;;;;;;78.97;28.13;;;;;;;13.03;100.00;99516.72;5094571;28;20338;-53
2022/01/04 09:46:03;;;;;;;86.90;28.70;;;;;;;12.95;100.00;99509.91;5095106;28;20048;-52
2022/01/04 09:48:29;;;;;;;95.85;29.45;;;;;;;13.25;100.00;99506.06;5094332;28;20740;-55
2022/01/04 09:50:57;;;;;;;97.87;31.33;;;;;;;13.30;100.00;99508.81;5094361;28;20119;-56
2022/01/04 09:53:24;;;;;;;67.47;23.53;;;;;;;13.26;100.00;99509.53;5093011;28;20144;-54
2022/01/04 09:55:52;;;;;;;66.73;23.43;;;;;;;13.16;100.00;99502.97;5094576;28;20315;-52
2022/01/04 09:58:19;;;;;;;64.28;21.73;;;;;;;12.99;100.00;99500.31;5094248;28;20281;-55
2022/01/04 10:00:45;;;;;;;70.47;25.27;;;;;;;12.66;100.00;99499.22;5094385;28;20047;-54
2022/01/04 10:03:16;;;;;;;63.03;22.80;;;;;;;12.71;100.00;99502.00;5094306;28;20040;-55
2022/01/04 10:05:43;;;;;;;53.45;20.98;;;;;;;12.79;100.00;99505.34;5094339;28;20032;-53
2022/01/04 10:08:09;;;;;;;;;;;;;;;13.50;100.00;99504.03;5093537;28;20447;-55
2022/01/04 10:10:36;;;;;;;52.70;19.77;;;;;;;13.32;100.00;99500.53;5076267;28;19977;-54
2022/01/04 10:13:05;;;;;;;50.35;20.48;;;;;;;13.16;100.00;99504.88;5092701;28;20265;-55
2022/01/04 10:15:33;;;;;;;48.35;20.05;;;;;;;13.43;100.00;99504.22;5094032;28;20064;-58
2022/01/04 10:18:21;;;;;;;60.72;23.40;;;;;;;13.23;100.00;99502.81;5093626;28;20111;-56
2022/01/04 10:20:59;;;;;;;58.28;22.75;;;;;;;13.57;100.00;99497.41;5092546;28;20040;-55
2022/01/04 10:23:25;;;;;;;55.23;23.00;;;;;;;13.41;100.00;99495.56;5093054;28;20036;-54
2022/01/04 10:26:00;;;;;;;64.57;25.30;;;;;;;13.30;100.00;99490.03;5075913;28;20276;-52
2022/01/04 10:28:58;;;;;;;63.43;24.03;;;;;;;13.37;100.00;99489.03;5094169;28;20688;-54
2022/01/04 10:31:24;;;;;;;58.33;23.90;;;;;;;13.33;100.00;99483.38;5090707;28;20375;-56
2022/01/04 10:33:56;;;;;;;56.75;22.65;;;;;;;13.20;100.00;99479.94;5092278;28;20068;-55
2022/01/04 10:36:25;;;;;;;60.70;23.47;;;;;;;13.48;100.00;99480.09;5092562;28;20102;-57
2022/01/04 10:38:51;;;;;;;45.65;19.83;;;;;;;12.89;100.00;99481.34;5092953;28;20332;-54
2022/01/04 10:41:17;;;;;;;43.88;18.60;;;;;;;12.75;100.00;99481.69;5094140;28;20532;-55
2022/01/04 10:43:47;;;;;;;45.53;18.95;;;;;;;12.97;100.00;99475.59;5094017;28;20444;-57
2022/01/04 10:46:17;;;;;;;43.75;18.70;;;;;;;12.92;100.00;99475.53;5093933;28;20028;-56
2022/01/04 10:48:45;;;;;;;43.63;18.30;;;;;;;13.09;100.00;99474.69;5092742;28;20032;-56
2022/01/04 10:51:22;;;;;;;43.67;17.40;;;;;;;12.96;100.00;99473.16;5092580;28;20456;-54
2022/01/04 10:53:51;;;;;;;38.97;16.27;;;;;;;12.88;100.00;99467.13;5094022;28;20040;-53
2022/01/04 10:56:24;;;;;;;45.33;17.02;;;;;;;12.93;100.00;99482.50;5093541;28;20051;-56
2022/01/04 10:58:51;;;;;;;51.47;19.70;;;;;;;12.98;100.00;99471.84;5093414;28;20040;-55
2022/01/04 11:01:28;;;;;;;52.60;18.58;;;;;;;12.63;100.00;99462.16;5092890;28;20036;-54
2022/01/04 11:03:55;;;;;;;;;;;;;;;12.86;100.00;99473.78;5093585;28;20044;-55
2022/01/04 11:06:24;;;;;;;46.15;17.05;;;;;;;13.29;100.00;99472.28;5093006;28;19923;-58
2022/01/04 11:08:50;;;;;;;45.17;17.00;;;;;;;13.52;100.00;99470.47;5092300;28;20075;-57
2022/01/04 11:11:16;;;;;;;42.95;17.20;;;;;;;13.53;100.00;99472.09;5093086;28;20280;-57
2022/01/04 11:13:42;;;;;;;38.92;16.20;;;;;;;13.20;100.00;99468.41;5093972;28;20040;-56
2022/01/04 11:16:08;;;;;;;48.50;16.02;;;;;;;13.57;100.00;99483.16;5093792;28;20043;-56
2022/01/04 11:18:40;;;;;;;59.78;16.83;;;;;;;13.21;100.00;99504.94;5075290;28;20047;-55